Terminal Aerodrome Forecast
Issued by NWS Twin Cities, MN

Home | Current Version | Previous Version | Text Only | Print | Product List | Glossary Off
Versions: 1 2 3 4 5 6 7 8 9 10 11 12 13 14 15 16

154
FTUS43 KMPX 220520
TAFEAU
TAF
KEAU 220520Z 2206/2306 14008KT P6SM SCT100 WS020/20040KT
     FM221000 16005KT P6SM SCT150
     FM221500 18011KT P6SM SCT150
     FM230200 17007KT P6SM SCT150 WS020/20050KT=

USA.gov is the U.S. government's official web portal to all federal, state and local government web resources and services.